createdAt,value
2023-04-23T00:00:41.559Z,99.90
2023-04-23T00:02:17.059Z,99.90
2023-04-23T00:03:51.062Z,99.90
2023-04-23T00:05:27.459Z,99.90
2023-04-23T00:07:03.678Z,99.90
2023-04-23T00:08:38.603Z,99.90
2023-04-23T00:10:12.607Z,99.90
2023-04-23T00:11:46.310Z,99.90
2023-04-23T00:13:18.649Z,99.90
2023-04-23T00:14:52.140Z,99.90
2023-04-23T00:16:25.893Z,99.90
2023-04-23T00:17:58.837Z,99.90
2023-04-23T00:19:31.895Z,99.90
2023-04-23T00:21:04.989Z,99.90
2023-04-23T00:22:39.246Z,99.90
2023-04-23T00:24:12.222Z,99.90
2023-04-23T00:25:45.200Z,99.90
2023-04-23T00:27:21.132Z,99.90
2023-04-23T00:28:54.147Z,99.90
2023-04-23T00:30:27.142Z,99.90
2023-04-23T00:31:59.557Z,99.90
2023-04-23T00:33:32.696Z,99.90
2023-04-23T00:35:06.306Z,99.90
2023-04-23T00:36:39.287Z,99.90
2023-04-23T00:38:13.679Z,99.90
2023-04-23T00:39:46.679Z,99.90
2023-04-23T00:41:20.371Z,99.90
2023-04-23T00:42:53.962Z,99.90
2023-04-23T00:44:27.117Z,99.90
2023-04-23T00:46:00.333Z,99.90
2023-04-23T00:47:33.746Z,99.90
2023-04-23T00:49:06.987Z,99.90
2023-04-23T00:50:39.890Z,99.90
2023-04-23T00:52:13.156Z,99.90
2023-04-23T00:53:47.386Z,99.90
2023-04-23T00:55:21.142Z,99.90
2023-04-23T00:56:58.060Z,99.90
2023-04-23T00:58:31.185Z,99.90
2023-04-23T01:00:05.672Z,99.90
2023-04-23T01:01:38.956Z,99.90
2023-04-23T01:03:13.134Z,99.90
2023-04-23T01:04:46.734Z,99.90
2023-04-23T01:06:20.239Z,99.90
2023-04-23T01:07:52.265Z,99.90
2023-04-23T01:09:28.267Z,99.90
2023-04-23T01:11:01.704Z,99.90
2023-04-23T01:12:34.699Z,99.90
2023-04-23T01:14:08.898Z,99.90
2023-04-23T01:15:41.133Z,99.90
2023-04-23T01:17:14.490Z,99.90
2023-04-23T01:18:47.300Z,99.90
2023-04-23T01:20:20.788Z,99.90
2023-04-23T01:21:53.690Z,99.90
2023-04-23T01:23:28.482Z,99.90
2023-04-23T01:25:01.717Z,99.90
2023-04-23T01:26:34.891Z,99.90
2023-04-23T01:28:08.170Z,99.90
2023-04-23T01:29:40.482Z,99.90
2023-04-23T01:31:14.622Z,99.90
2023-04-23T01:32:49.451Z,99.90
2023-04-23T01:34:23.350Z,99.90
2023-04-23T01:35:57.716Z,99.90
2023-04-23T01:37:30.461Z,99.90
2023-04-23T01:39:09.074Z,99.90
2023-04-23T01:40:42.057Z,99.90
2023-04-23T01:42:14.169Z,99.90
2023-04-23T01:43:47.502Z,99.90
2023-04-23T01:45:20.604Z,99.90
2023-04-23T01:46:53.964Z,99.90
2023-04-23T01:48:27.379Z,99.90
2023-04-23T01:49:59.344Z,99.90
2023-04-23T01:51:32.529Z,99.90
2023-04-23T01:53:05.467Z,99.90
2023-04-23T01:54:39.148Z,99.90
2023-04-23T01:56:12.546Z,99.90
2023-04-23T01:57:45.345Z,99.90
2023-04-23T01:59:18.276Z,99.90
2023-04-23T02:00:50.232Z,99.90
2023-04-23T02:02:23.183Z,99.90
2023-04-23T02:03:56.513Z,99.90
2023-04-23T02:05:30.971Z,99.90
2023-04-23T02:07:04.084Z,99.90
2023-04-23T02:08:36.148Z,99.90
2023-04-23T02:10:11.806Z,99.90
2023-04-23T02:11:44.755Z,99.90
2023-04-23T02:13:17.652Z,99.90
2023-04-23T02:14:50.932Z,99.90
2023-04-23T02:16:24.671Z,99.90
2023-04-23T02:17:58.003Z,99.90
2023-04-23T02:19:34.535Z,99.90
2023-04-23T02:21:06.667Z,99.90
2023-04-23T02:22:40.807Z,99.90
2023-04-23T02:24:13.782Z,99.90
2023-04-23T02:25:48.131Z,99.90
2023-04-23T02:27:21.528Z,99.90
2023-04-23T02:28:53.536Z,99.90
2023-04-23T02:30:26.803Z,99.90
2023-04-23T02:31:58.666Z,99.90
2023-04-23T02:33:31.600Z,99.90
2023-04-23T02:35:06.542Z,99.90
2023-04-23T02:36:39.672Z,99.90
2023-04-23T02:38:12.682Z,99.90
2023-04-23T02:39:44.799Z,99.90
2023-04-23T02:41:19.132Z,99.90
2023-04-23T02:42:52.061Z,99.90
2023-04-23T02:44:25.086Z,99.90
2023-04-23T02:45:58.039Z,99.90
2023-04-23T02:47:31.396Z,99.90
2023-04-23T02:49:04.742Z,99.90
2023-04-23T02:50:39.060Z,99.90
2023-04-23T02:52:11.864Z,99.90
2023-04-23T02:53:44.833Z,99.90
2023-04-23T02:55:17.818Z,99.90
2023-04-23T02:56:52.129Z,99.90
2023-04-23T02:58:25.267Z,99.90
2023-04-23T02:59:57.220Z,99.90
2023-04-23T03:01:30.338Z,99.90
2023-04-23T03:03:03.662Z,99.90
2023-04-23T03:04:36.716Z,99.90
2023-04-23T03:06:09.848Z,99.90
2023-04-23T03:07:42.879Z,99.90
2023-04-23T03:09:15.320Z,99.90
2023-04-23T03:10:48.314Z,99.90
2023-04-23T03:12:22.710Z,99.90
2023-04-23T03:13:55.053Z,99.90
2023-04-23T03:15:28.303Z,99.90
2023-04-23T03:17:02.090Z,99.90
2023-04-23T03:18:35.114Z,99.90
2023-04-23T03:20:11.469Z,99.90
2023-04-23T03:21:44.454Z,99.90
2023-04-23T03:23:16.455Z,99.90
2023-04-23T03:24:49.364Z,99.90
2023-04-23T03:26:21.338Z,99.90
2023-04-23T03:27:56.386Z,99.90
2023-04-23T03:29:28.497Z,99.90
2023-04-23T03:31:01.508Z,99.90
2023-04-23T03:32:33.520Z,99.90
2023-04-23T03:34:06.494Z,99.90
2023-04-23T03:35:38.508Z,99.90
2023-04-23T03:37:11.456Z,99.90
2023-04-23T03:38:43.407Z,99.90
2023-04-23T03:40:16.539Z,99.90
2023-04-23T03:41:49.624Z,99.90
2023-04-23T03:43:23.404Z,99.90
2023-04-23T03:44:56.360Z,99.90
2023-04-23T03:46:29.260Z,99.90
2023-04-23T03:48:01.516Z,99.90
2023-04-23T03:49:34.573Z,99.90
2023-04-23T03:51:07.470Z,99.90
2023-04-23T03:52:39.686Z,99.90
2023-04-23T03:54:12.693Z,99.90
2023-04-23T03:55:45.708Z,99.90
2023-04-23T03:57:18.685Z,99.90
2023-04-23T03:58:52.036Z,99.90
2023-04-23T04:00:25.307Z,99.90
2023-04-23T04:01:58.478Z,99.90
2023-04-23T04:03:31.751Z,99.90
2023-04-23T04:05:05.163Z,99.90
2023-04-23T04:06:37.444Z,99.90
2023-04-23T04:08:11.217Z,99.90
2023-04-23T04:09:44.231Z,99.90
2023-04-23T04:11:17.505Z,99.90
2023-04-23T04:12:50.236Z,99.90
2023-04-23T04:14:23.826Z,99.90
2023-04-23T04:15:56.730Z,99.90
2023-04-23T04:17:28.811Z,99.90
2023-04-23T04:19:02.428Z,99.90
2023-04-23T04:20:35.504Z,99.90
2023-04-23T04:22:08.526Z,99.90
2023-04-23T04:23:41.501Z,99.90
2023-04-23T04:25:13.439Z,99.90
2023-04-23T04:26:47.673Z,99.90
2023-04-23T04:28:20.602Z,99.90
2023-04-23T04:29:54.908Z,99.90
2023-04-23T04:31:28.093Z,99.90
2023-04-23T04:33:01.421Z,99.90
2023-04-23T04:34:36.191Z,99.90
2023-04-23T04:36:09.763Z,99.90
2023-04-23T04:37:43.766Z,99.90
2023-04-23T04:39:17.346Z,99.90
2023-04-23T04:40:50.511Z,99.90
2023-04-23T04:42:23.614Z,99.90
2023-04-23T04:43:55.736Z,99.90
2023-04-23T04:45:29.959Z,99.90
2023-04-23T04:47:02.271Z,99.90
2023-04-23T04:48:35.397Z,99.90
2023-04-23T04:50:08.086Z,99.90
2023-04-23T04:51:42.173Z,99.90
2023-04-23T04:53:14.283Z,99.90
2023-04-23T04:54:47.261Z,99.90
2023-04-23T04:56:19.273Z,99.90
2023-04-23T04:57:52.211Z,99.90
2023-04-23T04:59:25.243Z,99.90
2023-04-23T05:00:59.917Z,99.90
2023-04-23T05:02:32.114Z,99.90
2023-04-23T05:04:05.614Z,99.90
2023-04-23T05:05:38.962Z,99.90
2023-04-23T05:07:11.765Z,99.90
2023-04-23T05:08:48.030Z,99.90
2023-04-23T05:10:21.704Z,99.90
2023-04-23T05:11:54.712Z,99.90
2023-04-23T05:13:27.905Z,99.90
2023-04-23T05:15:01.295Z,99.90
2023-04-23T05:16:36.042Z,99.90
2023-04-23T05:18:11.914Z,99.90
2023-04-23T05:19:44.862Z,99.90
2023-04-23T05:21:17.854Z,99.90
2023-04-23T05:22:51.120Z,99.90
2023-04-23T05:24:23.961Z,99.90
2023-04-23T05:25:58.374Z,99.90
2023-04-23T05:27:30.385Z,99.90
2023-04-23T05:29:04.345Z,99.90
2023-04-23T05:30:37.393Z,99.90
2023-04-23T05:32:12.174Z,99.90
2023-04-23T05:33:50.343Z,99.90
2023-04-23T05:35:23.941Z,99.90
2023-04-23T05:36:56.926Z,99.90
2023-04-23T05:38:29.913Z,99.90
2023-04-23T05:40:04.828Z,99.90
2023-04-23T05:41:37.892Z,99.90
2023-04-23T05:43:11.373Z,99.90
2023-04-23T05:44:44.400Z,99.90
2023-04-23T05:46:17.436Z,99.90
2023-04-23T05:47:51.916Z,99.90
2023-04-23T05:49:25.026Z,99.90
2023-04-23T05:50:58.052Z,99.90
2023-04-23T05:52:33.427Z,99.90
2023-04-23T05:54:06.514Z,99.90
2023-04-23T05:55:39.430Z,99.90
2023-04-23T05:57:12.618Z,99.90
2023-04-23T05:58:45.618Z,99.90
2023-04-23T06:00:19.161Z,99.90
2023-04-23T06:01:52.534Z,99.90
2023-04-23T06:03:27.280Z,99.90
2023-04-23T06:05:00.562Z,99.90
2023-04-23T06:06:33.441Z,99.90
2023-04-23T06:08:06.441Z,99.90
2023-04-23T06:09:39.448Z,99.90
2023-04-23T06:11:12.367Z,99.90
2023-04-23T06:12:45.540Z,99.90
2023-04-23T06:14:18.500Z,99.90
2023-04-23T06:15:51.551Z,99.90
2023-04-23T06:17:25.668Z,99.90
2023-04-23T06:19:00.004Z,99.90
2023-04-23T06:20:32.935Z,99.90
2023-04-23T06:22:06.074Z,99.90
2023-04-23T06:23:38.996Z,99.90
2023-04-23T06:25:12.017Z,99.90
2023-04-23T06:26:45.291Z,99.90
2023-04-23T06:28:18.136Z,99.90
2023-04-23T06:29:51.218Z,99.90
2023-04-23T06:31:23.316Z,99.90
2023-04-23T06:32:56.415Z,99.90
2023-04-23T06:34:31.033Z,99.90
2023-04-23T06:36:03.990Z,99.90
2023-04-23T06:37:37.032Z,99.90
2023-04-23T06:39:10.415Z,99.90
2023-04-23T06:40:43.402Z,99.90
2023-04-23T06:42:16.355Z,99.90
2023-04-23T06:43:49.269Z,99.90
2023-04-23T06:45:22.485Z,99.90
2023-04-23T06:46:55.488Z,99.90
2023-04-23T06:48:28.705Z,99.90
2023-04-23T06:50:03.026Z,99.90
2023-04-23T06:51:36.241Z,99.90
2023-04-23T06:53:09.235Z,99.90
2023-04-23T06:54:42.425Z,99.90
2023-04-23T06:56:16.178Z,99.90
2023-04-23T06:57:49.132Z,99.90
2023-04-23T06:59:22.200Z,99.90
2023-04-23T07:00:55.393Z,99.90
2023-04-23T07:02:28.768Z,99.90
2023-04-23T07:04:01.724Z,99.90
2023-04-23T07:05:36.364Z,99.90
2023-04-23T07:07:09.321Z,99.90
2023-04-23T07:08:42.233Z,99.90
2023-04-23T07:10:17.471Z,99.90
2023-04-23T07:11:51.067Z,99.90
2023-04-23T07:13:24.182Z,99.90
2023-04-23T07:14:57.190Z,99.90
2023-04-23T07:16:33.516Z,99.90
2023-04-23T07:18:07.135Z,99.90
2023-04-23T07:19:40.097Z,99.90
2023-04-23T07:21:14.373Z,99.90
2023-04-23T07:22:47.909Z,99.90
2023-04-23T07:24:20.854Z,99.90
2023-04-23T07:25:53.782Z,99.90
2023-04-23T07:27:26.853Z,99.90
2023-04-23T07:28:59.865Z,99.90
2023-04-23T07:30:33.018Z,99.90
2023-04-23T07:32:05.982Z,99.90
2023-04-23T07:33:38.963Z,99.90
2023-04-23T07:35:11.926Z,99.90
2023-04-23T07:36:46.217Z,99.90
2023-04-23T07:38:19.245Z,99.90
2023-04-23T07:39:53.692Z,99.90
2023-04-23T07:41:26.667Z,99.90
2023-04-23T07:43:00.004Z,99.90
2023-04-23T07:44:32.753Z,99.90
2023-04-23T07:46:06.073Z,99.90
2023-04-23T07:47:39.222Z,99.90
2023-04-23T07:49:12.211Z,99.90
2023-04-23T07:50:45.287Z,99.90
2023-04-23T07:52:19.559Z,99.90
2023-04-23T07:53:54.183Z,99.90
2023-04-23T07:55:27.122Z,99.90
2023-04-23T07:57:00.227Z,99.90
2023-04-23T07:58:33.788Z,99.90
2023-04-23T08:00:09.464Z,99.90
2023-04-23T08:01:42.528Z,99.90
2023-04-23T08:03:15.825Z,99.90
2023-04-23T08:04:49.008Z,99.90
2023-04-23T08:06:21.978Z,99.90
2023-04-23T08:07:56.289Z,99.90
2023-04-23T08:09:29.215Z,99.90
2023-04-23T08:11:02.173Z,99.90
2023-04-23T08:12:35.913Z,99.90
2023-04-23T08:14:08.936Z,99.90
2023-04-23T08:15:42.252Z,99.90
2023-04-23T08:17:15.135Z,99.90
2023-04-23T08:18:58.121Z,99.90
2023-04-23T08:20:37.034Z,99.90
2023-04-23T08:22:10.672Z,99.90
2023-04-23T08:23:45.054Z,99.90
2023-04-23T08:25:17.936Z,99.90
2023-04-23T08:26:50.862Z,99.90
2023-04-23T08:28:23.736Z,99.90
2023-04-23T08:29:57.230Z,99.90
2023-04-23T08:31:30.303Z,99.90
2023-04-23T08:33:03.527Z,99.90
2023-04-23T08:34:36.528Z,99.90
2023-04-23T08:36:09.742Z,99.90
2023-04-23T08:37:42.521Z,99.90
2023-04-23T08:39:17.130Z,99.90
2023-04-23T08:40:51.483Z,99.90
2023-04-23T08:42:30.441Z,99.90
2023-04-23T08:44:12.621Z,99.90
2023-04-23T08:45:48.843Z,99.90
2023-04-23T08:47:25.700Z,99.90
2023-04-23T08:49:03.886Z,99.90
2023-04-23T08:50:39.155Z,99.90
2023-04-23T08:52:17.971Z,99.90
2023-04-23T08:53:56.980Z,99.90
2023-04-23T08:55:31.888Z,99.90
2023-04-23T08:57:06.063Z,99.90
2023-04-23T08:58:39.096Z,99.90
2023-04-23T09:00:13.752Z,99.90
2023-04-23T09:01:46.919Z,99.90
2023-04-23T09:03:20.791Z,99.90
2023-04-23T09:04:56.210Z,99.90
2023-04-23T09:06:29.633Z,99.90
2023-04-23T09:08:02.571Z,99.90
2023-04-23T09:09:36.560Z,99.90
2023-04-23T09:11:10.931Z,99.90
2023-04-23T09:12:45.135Z,99.90
2023-04-23T09:14:18.300Z,99.90
2023-04-23T09:15:51.405Z,99.90
2023-04-23T09:17:25.175Z,99.90
2023-04-23T09:18:59.856Z,99.90
2023-04-23T09:20:32.899Z,99.90
2023-04-23T09:22:05.998Z,99.90
2023-04-23T09:23:41.331Z,99.90
2023-04-23T09:25:16.199Z,99.90
2023-04-23T09:26:52.727Z,99.90
2023-04-23T09:28:36.077Z,99.90
2023-04-23T09:30:10.866Z,99.90
2023-04-23T09:31:44.024Z,99.90
2023-04-23T09:33:18.348Z,99.90
2023-04-23T09:34:57.869Z,99.90
2023-04-23T09:36:33.721Z,99.90
2023-04-23T09:38:10.489Z,99.90
2023-04-23T09:39:43.647Z,99.90
2023-04-23T09:41:26.343Z,99.90
2023-04-23T09:43:00.726Z,99.60
2023-04-23T09:44:35.027Z,99.20
2023-04-23T09:46:07.119Z,99.00
2023-04-23T09:47:43.070Z,98.50
2023-04-23T09:49:17.520Z,98.30
2023-04-23T09:50:50.541Z,97.90
2023-04-23T09:52:23.415Z,97.80
2023-04-23T09:53:56.413Z,97.60
2023-04-23T09:55:35.742Z,97.80
2023-04-23T09:57:09.320Z,98.10
2023-04-23T09:58:46.743Z,98.50
2023-04-23T10:00:22.978Z,98.70
2023-04-23T10:01:56.897Z,98.70
2023-04-23T10:03:29.893Z,98.10
2023-04-23T10:05:14.150Z,98.00
2023-04-23T10:08:32.848Z,98.80
2023-04-23T10:10:06.856Z,98.70
2023-04-23T10:11:40.362Z,98.40
2023-04-23T10:13:13.691Z,98.70
2023-04-23T10:14:53.759Z,97.90
2023-04-23T10:16:30.617Z,98.40
2023-04-23T10:18:12.735Z,98.40
2023-04-23T10:19:46.512Z,98.30
2023-04-23T10:21:20.273Z,98.20
2023-04-23T10:22:56.378Z,98.00
2023-04-23T10:24:32.939Z,97.10
2023-04-23T10:26:07.102Z,97.10
2023-04-23T10:27:52.873Z,96.60
2023-04-23T10:29:29.071Z,96.10
2023-04-23T10:31:04.866Z,95.90
2023-04-23T10:32:39.194Z,95.80
2023-04-23T10:34:12.766Z,95.80
2023-04-23T10:35:48.614Z,95.60
2023-04-23T10:37:22.970Z,95.50
2023-04-23T10:38:58.282Z,95.30
2023-04-23T10:40:35.084Z,94.90
2023-04-23T10:42:08.395Z,95.10
2023-04-23T10:43:42.004Z,94.60
2023-04-23T10:45:23.902Z,94.70
2023-04-23T10:47:01.726Z,94.80
2023-04-23T10:48:52.789Z,94.20
2023-04-23T10:50:27.388Z,94.50
2023-04-23T10:53:37.944Z,94.70
2023-04-23T10:55:18.817Z,94.40
2023-04-23T10:57:00.160Z,94.10
2023-04-23T10:58:49.391Z,94.50
2023-04-23T11:00:23.402Z,94.80
2023-04-23T11:02:00.602Z,95.20
2023-04-23T11:03:42.550Z,95.40
2023-04-23T11:05:17.278Z,94.90
2023-04-23T11:06:56.269Z,95.50
2023-04-23T11:08:31.982Z,95.80
2023-04-23T11:10:13.444Z,95.60
2023-04-23T11:11:46.463Z,95.60
2023-04-23T11:13:25.011Z,96.00
2023-04-23T11:14:59.533Z,96.20
2023-04-23T11:16:32.482Z,95.90
2023-04-23T11:18:07.065Z,96.30
2023-04-23T11:19:41.572Z,96.20
2023-04-23T11:21:15.005Z,95.20
2023-04-23T11:22:48.661Z,95.50
2023-04-23T11:24:23.638Z,95.60
2023-04-23T11:25:57.644Z,95.00
2023-04-23T11:27:31.992Z,95.20
2023-04-23T11:29:07.599Z,94.90
2023-04-23T11:30:40.777Z,94.90
2023-04-23T11:32:16.966Z,94.40
2023-04-23T11:33:51.399Z,94.00
2023-04-23T11:35:28.369Z,93.90
2023-04-23T11:37:02.148Z,93.80
2023-04-23T11:38:35.217Z,93.20
2023-04-23T11:40:10.524Z,93.40
2023-04-23T11:41:43.874Z,93.20
2023-04-23T11:43:20.893Z,92.70
2023-04-23T11:44:54.366Z,92.60
2023-04-23T11:46:27.480Z,92.70
2023-04-23T11:48:01.573Z,92.40
2023-04-23T11:49:38.983Z,92.10
2023-04-23T11:51:11.962Z,91.90
2023-04-23T11:52:45.205Z,91.70
2023-04-23T11:54:18.277Z,91.70
2023-04-23T11:55:51.393Z,91.60
2023-04-23T11:57:24.473Z,91.00
2023-04-23T11:59:00.209Z,90.90
2023-04-23T12:00:33.192Z,90.90
2023-04-23T12:02:06.246Z,90.80
2023-04-23T12:03:39.220Z,90.80
2023-04-23T12:05:13.881Z,90.70
2023-04-23T12:06:48.363Z,90.50
2023-04-23T12:08:22.772Z,90.60
2023-04-23T12:10:00.588Z,90.80
2023-04-23T12:11:35.022Z,90.50
2023-04-23T12:13:07.959Z,90.80
2023-04-23T12:14:40.960Z,90.40
2023-04-23T12:16:14.075Z,90.20
2023-04-23T12:17:50.976Z,89.60
2023-04-23T12:19:30.109Z,89.50
2023-04-23T12:21:08.613Z,89.70
2023-04-23T12:22:41.574Z,88.10
2023-04-23T12:24:14.823Z,88.50
2023-04-23T12:25:48.209Z,88.30
2023-04-23T12:27:22.856Z,87.20
2023-04-23T12:28:59.104Z,86.80
2023-04-23T12:30:33.481Z,87.50
2023-04-23T12:32:06.655Z,87.00
2023-04-23T12:33:39.408Z,86.20
2023-04-23T12:35:12.426Z,85.80
2023-04-23T12:36:48.627Z,85.00
2023-04-23T12:38:25.966Z,85.60
2023-04-23T12:39:59.716Z,87.00
2023-04-23T12:41:35.891Z,87.10
2023-04-23T12:43:08.861Z,87.60
2023-04-23T12:44:41.798Z,87.60
2023-04-23T12:46:14.776Z,87.80
2023-04-23T12:47:47.719Z,87.60
2023-04-23T12:49:20.919Z,86.90
2023-04-23T12:50:54.235Z,87.20
2023-04-23T12:52:29.356Z,88.30
2023-04-23T12:54:02.333Z,89.10
2023-04-23T12:55:35.498Z,89.50
2023-04-23T12:57:08.959Z,88.50
2023-04-23T12:58:41.893Z,89.20
2023-04-23T13:00:15.695Z,89.20
2023-04-23T13:01:49.003Z,88.00
2023-04-23T13:03:23.348Z,87.90
2023-04-23T13:05:01.044Z,88.20
2023-04-23T13:06:34.817Z,88.10
2023-04-23T13:08:09.205Z,87.90
2023-04-23T13:09:42.667Z,87.40
2023-04-23T13:11:16.091Z,87.70
2023-04-23T13:12:49.039Z,87.40
2023-04-23T13:14:22.325Z,87.60
2023-04-23T13:15:55.408Z,87.80
2023-04-23T13:17:28.653Z,88.20
2023-04-23T13:19:02.185Z,88.00
2023-04-23T13:20:35.424Z,88.00
2023-04-23T13:22:08.559Z,86.90
2023-04-23T13:23:41.738Z,86.50
2023-04-23T13:25:14.778Z,85.90
2023-04-23T13:26:47.768Z,85.60
2023-04-23T13:28:20.790Z,85.30
2023-04-23T13:29:53.621Z,85.30
2023-04-23T13:31:27.009Z,84.70
2023-04-23T13:33:00.176Z,84.30
2023-04-23T13:34:34.033Z,84.30
2023-04-23T13:36:08.134Z,84.00
2023-04-23T13:37:41.723Z,83.70
2023-04-23T13:39:16.155Z,84.10
2023-04-23T13:40:49.145Z,84.20
2023-04-23T13:42:22.226Z,83.70
2023-04-23T13:43:55.099Z,84.20
2023-04-23T13:45:27.162Z,84.70
2023-04-23T13:47:00.304Z,84.90
2023-04-23T13:48:33.415Z,85.10
2023-04-23T13:50:07.448Z,85.40
2023-04-23T13:51:40.452Z,85.40
2023-04-23T13:53:13.877Z,84.50
2023-04-23T13:54:49.101Z,85.30
2023-04-23T13:56:22.047Z,85.40
2023-04-23T13:57:57.804Z,86.70
2023-04-23T13:59:31.052Z,87.20
2023-04-23T14:01:03.924Z,87.60
2023-04-23T14:02:36.175Z,87.60
2023-04-23T14:04:09.935Z,88.30
2023-04-23T14:05:43.600Z,88.70
2023-04-23T14:07:17.019Z,89.10
2023-04-23T14:08:50.128Z,88.20
2023-04-23T14:10:24.384Z,88.00
2023-04-23T14:11:57.597Z,88.20
2023-04-23T14:13:31.296Z,88.30
2023-04-23T14:15:07.178Z,88.30
2023-04-23T14:16:40.473Z,87.60
2023-04-23T14:18:13.935Z,87.50
2023-04-23T14:19:46.862Z,87.90
2023-04-23T14:21:19.885Z,87.60
2023-04-23T14:22:56.830Z,87.50
2023-04-23T14:24:35.767Z,87.30
2023-04-23T14:26:11.338Z,87.00
2023-04-23T14:27:47.725Z,86.90
2023-04-23T14:29:26.387Z,86.50
2023-04-23T14:30:59.787Z,86.30
2023-04-23T14:32:32.797Z,86.10
2023-04-23T14:34:06.250Z,86.20
2023-04-23T14:35:43.415Z,85.20
2023-04-23T14:37:17.574Z,84.80
2023-04-23T14:38:52.964Z,85.60
2023-04-23T14:40:26.076Z,86.00
2023-04-23T14:42:02.927Z,86.10
2023-04-23T14:43:40.060Z,86.10
2023-04-23T14:45:14.005Z,86.50
2023-04-23T14:46:49.929Z,86.50
2023-04-23T14:48:22.847Z,86.10
2023-04-23T14:49:57.486Z,85.80
2023-04-23T14:51:31.386Z,86.10
2023-04-23T14:53:08.242Z,86.10
2023-04-23T14:54:41.186Z,86.10
2023-04-23T14:56:16.066Z,86.10
2023-04-23T14:57:50.455Z,84.70
2023-04-23T14:59:24.144Z,84.40
2023-04-23T15:00:57.131Z,84.00
2023-04-23T15:02:30.462Z,83.40
2023-04-23T15:04:04.200Z,84.90
2023-04-23T15:05:39.980Z,84.50
2023-04-23T15:07:13.254Z,85.50
2023-04-23T15:08:46.160Z,85.70
2023-04-23T15:10:21.651Z,85.40
2023-04-23T15:11:56.569Z,85.60
2023-04-23T15:13:56.410Z,85.50
2023-04-23T15:15:44.792Z,86.70
2023-04-23T15:17:21.817Z,86.90
2023-04-23T15:18:54.775Z,86.90
2023-04-23T15:20:27.691Z,86.80
2023-04-23T15:22:00.826Z,86.30
2023-04-23T15:23:34.782Z,85.90
2023-04-23T15:25:07.160Z,85.40
2023-04-23T15:26:40.440Z,85.60
2023-04-23T15:28:13.472Z,85.00
2023-04-23T15:29:49.294Z,85.30
2023-04-23T15:31:22.201Z,85.20
2023-04-23T15:32:56.294Z,85.60
2023-04-23T15:34:29.307Z,85.60
2023-04-23T15:36:02.393Z,85.70
2023-04-23T15:37:35.458Z,86.20
2023-04-23T15:39:09.578Z,85.80
2023-04-23T15:40:43.015Z,86.10
2023-04-23T15:42:18.175Z,86.20
2023-04-23T15:43:53.637Z,86.60
2023-04-23T15:45:27.904Z,86.10
2023-04-23T15:47:03.429Z,86.20
2023-04-23T15:48:39.116Z,85.80
2023-04-23T15:50:16.699Z,85.90
2023-04-23T15:51:49.826Z,85.60
2023-04-23T15:53:23.011Z,86.10
2023-04-23T15:54:56.093Z,85.90
2023-04-23T15:56:29.014Z,85.40
2023-04-23T15:58:07.231Z,84.90
2023-04-23T15:59:41.107Z,86.10
2023-04-23T16:01:19.878Z,87.10
2023-04-23T16:02:53.098Z,87.40
2023-04-23T16:04:26.516Z,88.30
2023-04-23T16:05:59.614Z,88.40
2023-04-23T16:07:32.700Z,89.10
2023-04-23T16:09:07.231Z,88.80
2023-04-23T16:10:40.640Z,89.00
2023-04-23T16:12:17.150Z,89.00
2023-04-23T16:13:52.645Z,89.10
2023-04-23T16:15:25.989Z,88.80
2023-04-23T16:17:00.437Z,88.30
2023-04-23T16:18:33.489Z,88.00
2023-04-23T16:20:07.867Z,86.90
2023-04-23T16:21:40.824Z,87.50
2023-04-23T16:23:14.418Z,87.20
2023-04-23T16:24:48.005Z,87.30
2023-04-23T16:26:21.029Z,87.60
2023-04-23T16:27:54.017Z,88.10
2023-04-23T16:29:27.034Z,88.20
2023-04-23T16:31:00.027Z,88.30
2023-04-23T16:32:36.279Z,86.40
2023-04-23T16:34:09.337Z,86.80
2023-04-23T16:35:42.464Z,86.90
2023-04-23T16:37:16.466Z,87.00
2023-04-23T16:38:49.679Z,87.40
2023-04-23T16:40:22.676Z,88.10
2023-04-23T16:41:58.574Z,88.10
2023-04-23T16:43:32.275Z,88.70
2023-04-23T16:45:05.943Z,88.60
2023-04-23T16:46:39.434Z,88.60
2023-04-23T16:48:16.534Z,89.00
2023-04-23T16:49:49.894Z,89.10
2023-04-23T16:51:22.850Z,89.40
2023-04-23T16:52:56.015Z,89.60
2023-04-23T16:54:28.802Z,90.00
2023-04-23T16:56:02.022Z,90.30
2023-04-23T16:57:36.100Z,90.10
2023-04-23T16:59:09.144Z,90.10
2023-04-23T17:00:42.082Z,90.30
2023-04-23T17:02:15.154Z,90.90
2023-04-23T17:03:49.506Z,92.00
2023-04-23T17:05:24.903Z,92.20
2023-04-23T17:06:57.988Z,92.80
2023-04-23T17:08:30.909Z,93.90
2023-04-23T17:10:03.945Z,94.90
2023-04-23T17:11:36.860Z,96.30
2023-04-23T17:13:09.814Z,97.10
2023-04-23T17:14:42.962Z,97.20
2023-04-23T17:16:16.234Z,98.30
2023-04-23T17:17:49.577Z,99.40
2023-04-23T17:19:23.877Z,99.90
2023-04-23T17:20:59.020Z,99.90
2023-04-23T17:22:34.652Z,99.90
2023-04-23T17:24:07.614Z,99.90
2023-04-23T17:25:40.509Z,99.90
2023-04-23T17:27:13.500Z,99.90
2023-04-23T17:28:46.576Z,99.90
2023-04-23T17:30:19.536Z,99.90
2023-04-23T17:31:52.548Z,99.90
2023-04-23T17:33:26.136Z,99.90
2023-04-23T17:35:09.350Z,99.90
2023-04-23T17:36:43.661Z,99.80
2023-04-23T17:38:20.448Z,99.90
2023-04-23T17:39:53.466Z,99.50
2023-04-23T17:41:26.535Z,99.50
2023-04-23T17:42:59.427Z,99.40
2023-04-23T17:44:32.390Z,98.80
2023-04-23T17:46:05.680Z,98.50
2023-04-23T17:47:40.748Z,98.70
2023-04-23T17:49:16.082Z,98.90
2023-04-23T17:50:50.567Z,99.70
2023-04-23T17:52:23.552Z,99.90
2023-04-23T17:54:00.299Z,99.90
2023-04-23T17:55:34.064Z,99.90
2023-04-23T17:57:09.637Z,99.90
2023-04-23T17:58:42.753Z,99.90
2023-04-23T18:00:20.935Z,99.90
2023-04-23T18:01:54.091Z,99.90
2023-04-23T18:03:28.420Z,99.90
2023-04-23T18:05:01.644Z,99.90
2023-04-23T18:06:37.081Z,99.90
2023-04-23T18:08:10.157Z,99.90
2023-04-23T18:09:43.158Z,99.90
2023-04-23T18:11:16.474Z,99.90
2023-04-23T18:12:49.672Z,99.90
2023-04-23T18:14:22.632Z,99.90
2023-04-23T18:15:55.606Z,99.90
2023-04-23T18:17:29.142Z,99.90
2023-04-23T18:19:02.449Z,99.90
2023-04-23T18:20:38.431Z,99.90
2023-04-23T18:22:12.892Z,99.90
2023-04-23T18:23:46.333Z,99.90
2023-04-23T18:25:19.385Z,99.90
2023-04-23T18:26:53.363Z,99.90
2023-04-23T18:28:26.290Z,99.90
2023-04-23T18:30:00.703Z,99.90
2023-04-23T18:31:33.802Z,99.90
2023-04-23T18:33:12.656Z,99.90
2023-04-23T18:34:47.498Z,99.90
2023-04-23T18:36:24.700Z,99.90
2023-04-23T18:38:07.837Z,99.90
2023-04-23T18:39:43.521Z,99.90
2023-04-23T18:41:16.680Z,99.90
2023-04-23T18:42:50.339Z,99.90
2023-04-23T18:44:23.383Z,99.90
2023-04-23T18:45:56.794Z,99.90
2023-04-23T18:47:32.995Z,99.90
2023-04-23T18:49:23.387Z,99.90
2023-04-23T18:50:58.003Z,99.90
2023-04-23T18:52:31.174Z,99.90
2023-04-23T18:54:06.179Z,99.90
2023-04-23T18:55:39.192Z,99.90
2023-04-23T18:57:12.247Z,99.90
2023-04-23T18:58:45.465Z,99.90
2023-04-23T19:00:18.406Z,99.90
2023-04-23T19:01:51.412Z,99.90
2023-04-23T19:03:27.171Z,99.90
2023-04-23T19:05:00.642Z,99.90
2023-04-23T19:06:34.555Z,99.90
2023-04-23T19:08:07.452Z,99.90
2023-04-23T19:09:42.064Z,99.90
2023-04-23T19:11:15.353Z,99.90
2023-04-23T19:12:48.338Z,99.90
2023-04-23T19:14:21.274Z,99.90
2023-04-23T19:15:54.547Z,99.90
2023-04-23T19:17:27.540Z,99.90
2023-04-23T19:19:00.597Z,99.90
2023-04-23T19:20:33.685Z,99.90
2023-04-23T19:22:05.620Z,99.90
2023-04-23T19:23:38.542Z,99.90
2023-04-23T19:25:13.081Z,99.90
2023-04-23T19:26:46.711Z,99.90
2023-04-23T19:28:18.832Z,99.90
2023-04-23T19:29:53.251Z,99.90
2023-04-23T19:31:26.574Z,99.90
2023-04-23T19:32:59.557Z,99.90
2023-04-23T19:34:32.868Z,99.90
2023-04-23T19:36:05.763Z,99.90
2023-04-23T19:37:38.643Z,99.90
2023-04-23T19:39:11.566Z,99.90
2023-04-23T19:40:45.801Z,99.90
2023-04-23T19:42:19.632Z,99.90
2023-04-23T19:43:52.498Z,99.90
2023-04-23T19:45:26.830Z,99.90
2023-04-23T19:46:59.839Z,99.90
2023-04-23T19:48:32.839Z,99.90
2023-04-23T19:50:07.220Z,99.90
2023-04-23T19:51:41.031Z,99.90
2023-04-23T19:53:14.019Z,99.90
2023-04-23T19:54:49.091Z,99.90
2023-04-23T19:56:24.032Z,99.90
2023-04-23T19:57:58.435Z,99.90
2023-04-23T19:59:31.437Z,99.90
2023-04-23T20:01:04.555Z,99.90
2023-04-23T20:02:37.815Z,99.90
2023-04-23T20:04:10.852Z,99.90
2023-04-23T20:05:46.010Z,99.90
2023-04-23T20:07:19.224Z,99.90
2023-04-23T20:09:07.431Z,99.90
2023-04-23T20:10:40.626Z,99.90
2023-04-23T20:12:15.658Z,99.90
2023-04-23T20:13:48.660Z,99.90
2023-04-23T20:15:24.391Z,99.90